sensor_id;sensor_type;location;lat;lon;timestamp;P1;durP1;ratioP1;P2;durP2;ratioP2
59424;SDS011;45231;44.826;20.312;2022-10-23T00:00:23;5.95;;;2.30;;
59424;SDS011;45231;44.826;20.312;2022-10-23T00:02:52;5.00;;;2.13;;
59424;SDS011;45231;44.826;20.312;2022-10-23T00:05:19;4.82;;;2.20;;
59424;SDS011;45231;44.826;20.312;2022-10-23T00:07:49;5.38;;;2.25;;
59424;SDS011;45231;44.826;20.312;2022-10-23T00:10:15;6.30;;;2.40;;
59424;SDS011;45231;44.826;20.312;2022-10-23T00:12:42;6.45;;;2.22;;
59424;SDS011;45231;44.826;20.312;2022-10-23T00:15:08;5.20;;;2.30;;
59424;SDS011;45231;44.826;20.312;2022-10-23T00:17:34;5.68;;;2.35;;
59424;SDS011;45231;44.826;20.312;2022-10-23T00:20:00;5.60;;;2.42;;
59424;SDS011;45231;44.826;20.312;2022-10-23T00:22:26;5.32;;;1.92;;
59424;SDS011;45231;44.826;20.312;2022-10-23T00:24:52;6.75;;;2.35;;
59424;SDS011;45231;44.826;20.312;2022-10-23T00:27:18;4.60;;;2.00;;
59424;SDS011;45231;44.826;20.312;2022-10-23T00:29:44;5.78;;;2.42;;
59424;SDS011;45231;44.826;20.312;2022-10-23T00:32:10;5.60;;;2.17;;
59424;SDS011;45231;44.826;20.312;2022-10-23T00:34:36;7.15;;;2.33;;
59424;SDS011;45231;44.826;20.312;2022-10-23T00:37:02;4.70;;;2.08;;
59424;SDS011;45231;44.826;20.312;2022-10-23T00:39:28;6.07;;;2.78;;
59424;SDS011;45231;44.826;20.312;2022-10-23T00:41:54;5.82;;;2.20;;
59424;SDS011;45231;44.826;20.312;2022-10-23T00:46:46;8.73;;;2.53;;
59424;SDS011;45231;44.826;20.312;2022-10-23T00:49:12;6.07;;;2.70;;
59424;SDS011;45231;44.826;20.312;2022-10-23T00:51:40;4.68;;;2.05;;
59424;SDS011;45231;44.826;20.312;2022-10-23T00:54:06;5.28;;;2.35;;
59424;SDS011;45231;44.826;20.312;2022-10-23T00:56:33;5.80;;;2.53;;
59424;SDS011;45231;44.826;20.312;2022-10-23T00:59:00;5.78;;;2.80;;
59424;SDS011;45231;44.826;20.312;2022-10-23T01:01:26;6.00;;;2.70;;
59424;SDS011;45231;44.826;20.312;2022-10-23T01:03:52;5.32;;;2.42;;
59424;SDS011;45231;44.826;20.312;2022-10-23T01:14:03;5.90;;;2.40;;
59424;SDS011;45231;44.826;20.312;2022-10-23T01:21:40;6.55;;;2.45;;
59424;SDS011;45231;44.826;20.312;2022-10-23T01:32:06;6.13;;;2.80;;
59424;SDS011;45231;44.826;20.312;2022-10-23T01:34:40;5.68;;;2.58;;
59424;SDS011;45231;44.826;20.312;2022-10-23T01:37:09;5.55;;;2.40;;
59424;SDS011;45231;44.826;20.312;2022-10-23T01:39:37;5.68;;;2.50;;
59424;SDS011;45231;44.826;20.312;2022-10-23T01:42:09;7.28;;;3.08;;
59424;SDS011;45231;44.826;20.312;2022-10-23T01:44:49;5.53;;;2.40;;
59424;SDS011;45231;44.826;20.312;2022-10-23T01:47:17;5.95;;;2.30;;
59424;SDS011;45231;44.826;20.312;2022-10-23T01:49:44;6.60;;;2.60;;
59424;SDS011;45231;44.826;20.312;2022-10-23T01:52:12;6.13;;;2.80;;
59424;SDS011;45231;44.826;20.312;2022-10-23T01:54:40;7.28;;;2.78;;
59424;SDS011;45231;44.826;20.312;2022-10-23T01:57:07;6.75;;;2.58;;
59424;SDS011;45231;44.826;20.312;2022-10-23T01:59:38;5.70;;;2.70;;
59424;SDS011;45231;44.826;20.312;2022-10-23T02:02:06;5.50;;;2.72;;
59424;SDS011;45231;44.826;20.312;2022-10-23T02:04:39;6.40;;;2.63;;
59424;SDS011;45231;44.826;20.312;2022-10-23T02:07:07;6.40;;;2.40;;
59424;SDS011;45231;44.826;20.312;2022-10-23T02:09:33;7.22;;;2.58;;
59424;SDS011;45231;44.826;20.312;2022-10-23T02:12:07;5.80;;;2.75;;
59424;SDS011;45231;44.826;20.312;2022-10-23T02:17:25;6.13;;;2.70;;
59424;SDS011;45231;44.826;20.312;2022-10-23T02:19:58;5.22;;;2.53;;
59424;SDS011;45231;44.826;20.312;2022-10-23T02:22:26;6.32;;;2.65;;
59424;SDS011;45231;44.826;20.312;2022-10-23T02:25:03;5.55;;;2.72;;
59424;SDS011;45231;44.826;20.312;2022-10-23T02:27:39;7.40;;;2.42;;
59424;SDS011;45231;44.826;20.312;2022-10-23T02:30:08;6.35;;;2.53;;
59424;SDS011;45231;44.826;20.312;2022-10-23T02:32:35;5.28;;;2.35;;
59424;SDS011;45231;44.826;20.312;2022-10-23T02:35:03;10.10;;;4.35;;
59424;SDS011;45231;44.826;20.312;2022-10-23T02:37:29;24.17;;;10.20;;
59424;SDS011;45231;44.826;20.312;2022-10-23T02:39:56;6.60;;;3.07;;
59424;SDS011;45231;44.826;20.312;2022-10-23T02:42:26;6.63;;;2.67;;
59424;SDS011;45231;44.826;20.312;2022-10-23T02:44:58;6.60;;;2.95;;
59424;SDS011;45231;44.826;20.312;2022-10-23T02:47:37;6.80;;;3.08;;
59424;SDS011;45231;44.826;20.312;2022-10-23T03:00:29;7.77;;;2.93;;
59424;SDS011;45231;44.826;20.312;2022-10-23T03:03:01;7.82;;;3.20;;
59424;SDS011;45231;44.826;20.312;2022-10-23T03:05:29;8.45;;;3.28;;
59424;SDS011;45231;44.826;20.312;2022-10-23T03:07:56;6.20;;;2.80;;
59424;SDS011;45231;44.826;20.312;2022-10-23T03:10:22;8.30;;;3.10;;
59424;SDS011;45231;44.826;20.312;2022-10-23T03:12:49;6.65;;;2.85;;
59424;SDS011;45231;44.826;20.312;2022-10-23T03:15:15;6.60;;;3.00;;
59424;SDS011;45231;44.826;20.312;2022-10-23T03:17:41;8.13;;;3.75;;
59424;SDS011;45231;44.826;20.312;2022-10-23T03:20:07;7.30;;;3.30;;
59424;SDS011;45231;44.826;20.312;2022-10-23T03:22:34;9.07;;;3.42;;
59424;SDS011;45231;44.826;20.312;2022-10-23T03:25:00;7.90;;;3.53;;
59424;SDS011;45231;44.826;20.312;2022-10-23T03:27:26;7.45;;;3.00;;
59424;SDS011;45231;44.826;20.312;2022-10-23T03:29:52;14.90;;;3.30;;
59424;SDS011;45231;44.826;20.312;2022-10-23T03:32:18;8.20;;;2.92;;
59424;SDS011;45231;44.826;20.312;2022-10-23T03:34:44;7.23;;;3.03;;
59424;SDS011;45231;44.826;20.312;2022-10-23T03:37:10;5.67;;;2.63;;
59424;SDS011;45231;44.826;20.312;2022-10-23T03:39:36;6.13;;;2.77;;
59424;SDS011;45231;44.826;20.312;2022-10-23T03:42:02;5.00;;;2.57;;
59424;SDS011;45231;44.826;20.312;2022-10-23T03:44:28;6.82;;;2.28;;
59424;SDS011;45231;44.826;20.312;2022-10-23T03:46:55;6.10;;;2.35;;
59424;SDS011;45231;44.826;20.312;2022-10-23T03:49:21;7.53;;;2.35;;
59424;SDS011;45231;44.826;20.312;2022-10-23T03:51:47;4.07;;;1.77;;
59424;SDS011;45231;44.826;20.312;2022-10-23T03:54:23;4.50;;;2.10;;
59424;SDS011;45231;44.826;20.312;2022-10-23T03:56:50;4.22;;;1.70;;
59424;SDS011;45231;44.826;20.312;2022-10-23T03:59:16;6.38;;;2.35;;
59424;SDS011;45231;44.826;20.312;2022-10-23T04:01:42;7.22;;;2.65;;
59424;SDS011;45231;44.826;20.312;2022-10-23T04:04:08;4.97;;;2.38;;
59424;SDS011;45231;44.826;20.312;2022-10-23T04:06:34;18.33;;;6.20;;
59424;SDS011;45231;44.826;20.312;2022-10-23T04:09:00;23.23;;;6.95;;
59424;SDS011;45231;44.826;20.312;2022-10-23T04:11:26;7.67;;;2.67;;
59424;SDS011;45231;44.826;20.312;2022-10-23T04:13:52;4.47;;;2.35;;
59424;SDS011;45231;44.826;20.312;2022-10-23T04:16:18;8.38;;;3.42;;
59424;SDS011;45231;44.826;20.312;2022-10-23T04:18:44;6.67;;;2.70;;
59424;SDS011;45231;44.826;20.312;2022-10-23T04:21:11;8.95;;;3.72;;
59424;SDS011;45231;44.826;20.312;2022-10-23T04:23:37;7.68;;;2.90;;
59424;SDS011;45231;44.826;20.312;2022-10-23T04:26:03;8.63;;;3.33;;
59424;SDS011;45231;44.826;20.312;2022-10-23T04:28:29;9.30;;;2.90;;
59424;SDS011;45231;44.826;20.312;2022-10-23T04:30:55;11.73;;;3.43;;
59424;SDS011;45231;44.826;20.312;2022-10-23T04:33:21;9.27;;;3.20;;
59424;SDS011;45231;44.826;20.312;2022-10-23T04:35:47;6.95;;;3.22;;
59424;SDS011;45231;44.826;20.312;2022-10-23T04:38:13;6.43;;;2.88;;
59424;SDS011;45231;44.826;20.312;2022-10-23T04:40:39;6.03;;;2.70;;
59424;SDS011;45231;44.826;20.312;2022-10-23T04:43:05;6.60;;;3.00;;
59424;SDS011;45231;44.826;20.312;2022-10-23T04:45:31;7.40;;;3.17;;
59424;SDS011;45231;44.826;20.312;2022-10-23T04:47:57;6.17;;;2.73;;
59424;SDS011;45231;44.826;20.312;2022-10-23T04:50:23;6.27;;;2.70;;
59424;SDS011;45231;44.826;20.312;2022-10-23T04:52:53;5.38;;;2.22;;
59424;SDS011;45231;44.826;20.312;2022-10-23T04:55:19;6.68;;;2.53;;
59424;SDS011;45231;44.826;20.312;2022-10-23T04:57:45;5.07;;;2.33;;
59424;SDS011;45231;44.826;20.312;2022-10-23T05:00:12;6.20;;;3.00;;
59424;SDS011;45231;44.826;20.312;2022-10-23T05:02:38;6.20;;;3.08;;
59424;SDS011;45231;44.826;20.312;2022-10-23T05:05:05;5.75;;;2.75;;
59424;SDS011;45231;44.826;20.312;2022-10-23T05:09:57;6.97;;;2.58;;
59424;SDS011;45231;44.826;20.312;2022-10-23T05:12:23;8.57;;;3.67;;
59424;SDS011;45231;44.826;20.312;2022-10-23T05:17:18;15.55;;;3.97;;
59424;SDS011;45231;44.826;20.312;2022-10-23T05:19:47;21.67;;;5.85;;
59424;SDS011;45231;44.826;20.312;2022-10-23T05:22:15;24.63;;;8.48;;
59424;SDS011;45231;44.826;20.312;2022-10-23T05:24:41;10.07;;;4.13;;
59424;SDS011;45231;44.826;20.312;2022-10-23T05:27:09;8.18;;;3.30;;
59424;SDS011;45231;44.826;20.312;2022-10-23T05:29:35;7.97;;;3.53;;
59424;SDS011;45231;44.826;20.312;2022-10-23T05:32:01;6.97;;;2.60;;
59424;SDS011;45231;44.826;20.312;2022-10-23T05:34:28;6.07;;;2.75;;
59424;SDS011;45231;44.826;20.312;2022-10-23T05:36:55;5.95;;;2.50;;
59424;SDS011;45231;44.826;20.312;2022-10-23T05:39:22;6.93;;;2.65;;
59424;SDS011;45231;44.826;20.312;2022-10-23T05:41:48;5.72;;;2.60;;
59424;SDS011;45231;44.826;20.312;2022-10-23T05:44:15;5.53;;;2.50;;
59424;SDS011;45231;44.826;20.312;2022-10-23T05:46:41;7.38;;;3.95;;
59424;SDS011;45231;44.826;20.312;2022-10-23T05:49:07;8.95;;;6.18;;
59424;SDS011;45231;44.826;20.312;2022-10-23T05:51:37;9.40;;;6.22;;
59424;SDS011;45231;44.826;20.312;2022-10-23T05:54:04;7.95;;;4.90;;
59424;SDS011;45231;44.826;20.312;2022-10-23T05:56:33;6.97;;;4.07;;
59424;SDS011;45231;44.826;20.312;2022-10-23T05:59:00;4.63;;;2.65;;
59424;SDS011;45231;44.826;20.312;2022-10-23T06:01:26;5.40;;;2.65;;
59424;SDS011;45231;44.826;20.312;2022-10-23T06:03:52;5.82;;;2.70;;
59424;SDS011;45231;44.826;20.312;2022-10-23T06:06:18;4.50;;;2.55;;
59424;SDS011;45231;44.826;20.312;2022-10-23T06:08:44;4.78;;;2.50;;
59424;SDS011;45231;44.826;20.312;2022-10-23T06:11:11;5.50;;;3.20;;
59424;SDS011;45231;44.826;20.312;2022-10-23T06:13:38;6.53;;;3.08;;
59424;SDS011;45231;44.826;20.312;2022-10-23T06:18:30;5.05;;;2.60;;
59424;SDS011;45231;44.826;20.312;2022-10-23T06:20:58;5.60;;;2.92;;
59424;SDS011;45231;44.826;20.312;2022-10-23T06:23:25;6.20;;;2.95;;
59424;SDS011;45231;44.826;20.312;2022-10-23T06:28:20;5.18;;;2.78;;
59424;SDS011;45231;44.826;20.312;2022-10-23T06:30:46;4.75;;;2.72;;
59424;SDS011;45231;44.826;20.312;2022-10-23T06:33:13;5.88;;;2.95;;
59424;SDS011;45231;44.826;20.312;2022-10-23T06:35:39;5.97;;;2.67;;
59424;SDS011;45231;44.826;20.312;2022-10-23T06:38:05;4.93;;;2.67;;
59424;SDS011;45231;44.826;20.312;2022-10-23T06:40:33;5.03;;;2.75;;
59424;SDS011;45231;44.826;20.312;2022-10-23T06:42:59;5.00;;;2.60;;
59424;SDS011;45231;44.826;20.312;2022-10-23T06:45:25;5.05;;;2.60;;
59424;SDS011;45231;44.826;20.312;2022-10-23T06:47:51;5.25;;;2.70;;
59424;SDS011;45231;44.826;20.312;2022-10-23T06:50:17;4.50;;;2.50;;
59424;SDS011;45231;44.826;20.312;2022-10-23T06:52:43;5.20;;;2.42;;
59424;SDS011;45231;44.826;20.312;2022-10-23T06:55:09;4.53;;;1.80;;
59424;SDS011;45231;44.826;20.312;2022-10-23T06:57:35;6.90;;;2.90;;
59424;SDS011;45231;44.826;20.312;2022-10-23T07:00:01;5.18;;;2.20;;
59424;SDS011;45231;44.826;20.312;2022-10-23T07:02:28;4.90;;;2.30;;
59424;SDS011;45231;44.826;20.312;2022-10-23T07:04:54;4.70;;;2.30;;
59424;SDS011;45231;44.826;20.312;2022-10-23T07:07:20;4.82;;;2.70;;
59424;SDS011;45231;44.826;20.312;2022-10-23T07:09:46;5.68;;;2.78;;
59424;SDS011;45231;44.826;20.312;2022-10-23T07:12:12;4.40;;;2.30;;
59424;SDS011;45231;44.826;20.312;2022-10-23T07:14:38;5.18;;;2.53;;
59424;SDS011;45231;44.826;20.312;2022-10-23T07:17:04;4.60;;;2.40;;
59424;SDS011;45231;44.826;20.312;2022-10-23T07:19:30;5.95;;;2.33;;
59424;SDS011;45231;44.826;20.312;2022-10-23T07:21:56;5.35;;;2.78;;
59424;SDS011;45231;44.826;20.312;2022-10-23T07:24:22;5.43;;;2.45;;
59424;SDS011;45231;44.826;20.312;2022-10-23T07:26:48;4.53;;;2.28;;
59424;SDS011;45231;44.826;20.312;2022-10-23T07:29:14;4.50;;;2.20;;
59424;SDS011;45231;44.826;20.312;2022-10-23T07:31:40;4.55;;;2.30;;
59424;SDS011;45231;44.826;20.312;2022-10-23T07:34:06;4.25;;;2.17;;
59424;SDS011;45231;44.826;20.312;2022-10-23T07:36:32;4.68;;;2.50;;
59424;SDS011;45231;44.826;20.312;2022-10-23T07:38:58;4.28;;;2.38;;
59424;SDS011;45231;44.826;20.312;2022-10-23T07:41:24;4.85;;;2.65;;
59424;SDS011;45231;44.826;20.312;2022-10-23T07:43:50;4.70;;;2.88;;
59424;SDS011;45231;44.826;20.312;2022-10-23T07:46:16;4.45;;;2.50;;
59424;SDS011;45231;44.826;20.312;2022-10-23T07:48:42;5.07;;;2.67;;
59424;SDS011;45231;44.826;20.312;2022-10-23T07:51:13;5.43;;;2.60;;
59424;SDS011;45231;44.826;20.312;2022-10-23T07:53:39;5.40;;;2.50;;
59424;SDS011;45231;44.826;20.312;2022-10-23T07:56:11;4.45;;;2.60;;
59424;SDS011;45231;44.826;20.312;2022-10-23T07:58:38;4.88;;;2.60;;
59424;SDS011;45231;44.826;20.312;2022-10-23T08:01:05;6.28;;;3.08;;
59424;SDS011;45231;44.826;20.312;2022-10-23T08:03:36;5.40;;;3.00;;
59424;SDS011;45231;44.826;20.312;2022-10-23T08:06:02;4.97;;;2.85;;
59424;SDS011;45231;44.826;20.312;2022-10-23T08:08:29;5.13;;;2.85;;
59424;SDS011;45231;44.826;20.312;2022-10-23T08:10:55;4.93;;;2.90;;
59424;SDS011;45231;44.826;20.312;2022-10-23T08:13:21;4.60;;;2.65;;
59424;SDS011;45231;44.826;20.312;2022-10-23T08:15:48;4.60;;;2.90;;
59424;SDS011;45231;44.826;20.312;2022-10-23T08:18:14;5.22;;;2.92;;
59424;SDS011;45231;44.826;20.312;2022-10-23T08:20:41;5.85;;;3.15;;
59424;SDS011;45231;44.826;20.312;2022-10-23T08:23:07;4.88;;;2.88;;
59424;SDS011;45231;44.826;20.312;2022-10-23T08:25:34;5.40;;;3.10;;
59424;SDS011;45231;44.826;20.312;2022-10-23T08:28:00;5.32;;;3.17;;
59424;SDS011;45231;44.826;20.312;2022-10-23T08:30:26;5.20;;;2.92;;
59424;SDS011;45231;44.826;20.312;2022-10-23T08:32:52;6.50;;;3.10;;
59424;SDS011;45231;44.826;20.312;2022-10-23T08:35:18;4.75;;;2.80;;
59424;SDS011;45231;44.826;20.312;2022-10-23T08:37:44;6.40;;;2.78;;
59424;SDS011;45231;44.826;20.312;2022-10-23T08:40:17;5.95;;;3.38;;
59424;SDS011;45231;44.826;20.312;2022-10-23T08:42:45;5.22;;;2.90;;
59424;SDS011;45231;44.826;20.312;2022-10-23T08:48:00;5.28;;;2.97;;
59424;SDS011;45231;44.826;20.312;2022-10-23T08:50:29;5.63;;;2.78;;
59424;SDS011;45231;44.826;20.312;2022-10-23T08:53:02;5.75;;;3.00;;
59424;SDS011;45231;44.826;20.312;2022-10-23T08:55:30;5.22;;;2.90;;
59424;SDS011;45231;44.826;20.312;2022-10-23T09:00:42;4.65;;;2.53;;
59424;SDS011;45231;44.826;20.312;2022-10-23T09:03:09;5.10;;;3.20;;
59424;SDS011;45231;44.826;20.312;2022-10-23T09:16:02;4.93;;;2.78;;
59424;SDS011;45231;44.826;20.312;2022-10-23T09:18:31;4.80;;;2.65;;
59424;SDS011;45231;44.826;20.312;2022-10-23T09:20:58;6.53;;;2.70;;
59424;SDS011;45231;44.826;20.312;2022-10-23T09:23:25;4.78;;;2.47;;
59424;SDS011;45231;44.826;20.312;2022-10-23T09:25:51;4.10;;;2.30;;
59424;SDS011;45231;44.826;20.312;2022-10-23T09:28:25;4.63;;;2.60;;
59424;SDS011;45231;44.826;20.312;2022-10-23T09:30:52;5.15;;;2.60;;
59424;SDS011;45231;44.826;20.312;2022-10-23T09:33:25;4.47;;;2.40;;
59424;SDS011;45231;44.826;20.312;2022-10-23T09:35:56;4.32;;;2.30;;
59424;SDS011;45231;44.826;20.312;2022-10-23T09:38:27;4.78;;;2.63;;
59424;SDS011;45231;44.826;20.312;2022-10-23T09:40:53;4.00;;;2.05;;
59424;SDS011;45231;44.826;20.312;2022-10-23T09:43:20;4.70;;;2.20;;
59424;SDS011;45231;44.826;20.312;2022-10-23T09:45:58;5.05;;;2.28;;
59424;SDS011;45231;44.826;20.312;2022-10-23T09:48:24;5.47;;;2.35;;
59424;SDS011;45231;44.826;20.312;2022-10-23T09:50:51;4.65;;;2.22;;
59424;SDS011;45231;44.826;20.312;2022-10-23T09:53:26;4.50;;;2.10;;
59424;SDS011;45231;44.826;20.312;2022-10-23T09:55:54;4.03;;;2.13;;
59424;SDS011;45231;44.826;20.312;2022-10-23T09:58:23;4.35;;;1.92;;
59424;SDS011;45231;44.826;20.312;2022-10-23T10:00:52;3.92;;;1.80;;
59424;SDS011;45231;44.826;20.312;2022-10-23T10:03:21;4.75;;;2.15;;
59424;SDS011;45231;44.826;20.312;2022-10-23T10:05:55;4.95;;;1.90;;
59424;SDS011;45231;44.826;20.312;2022-10-23T10:10:52;5.07;;;2.30;;
59424;SDS011;45231;44.826;20.312;2022-10-23T10:15:49;4.30;;;2.30;;
59424;SDS011;45231;44.826;20.312;2022-10-23T10:33:34;5.07;;;2.03;;
59424;SDS011;45231;44.826;20.312;2022-10-23T10:38:46;3.88;;;1.70;;
59424;SDS011;45231;44.826;20.312;2022-10-23T10:56:32;4.82;;;2.00;;
59424;SDS011;45231;44.826;20.312;2022-10-23T10:59:10;5.03;;;2.10;;
59424;SDS011;45231;44.826;20.312;2022-10-23T11:01:40;4.13;;;2.00;;
59424;SDS011;45231;44.826;20.312;2022-10-23T11:06:40;4.15;;;1.92;;
59424;SDS011;45231;44.826;20.312;2022-10-23T11:09:23;5.93;;;2.20;;
59424;SDS011;45231;44.826;20.312;2022-10-23T11:11:49;5.28;;;2.20;;
59424;SDS011;45231;44.826;20.312;2022-10-23T11:14:16;5.15;;;2.30;;
59424;SDS011;45231;44.826;20.312;2022-10-23T11:16:50;4.50;;;2.13;;
59424;SDS011;45231;44.826;20.312;2022-10-23T11:24:32;4.60;;;2.00;;
59424;SDS011;45231;44.826;20.312;2022-10-23T11:27:24;5.57;;;2.33;;
59424;SDS011;45231;44.826;20.312;2022-10-23T11:35:00;3.33;;;1.67;;
59424;SDS011;45231;44.826;20.312;2022-10-23T11:37:29;4.10;;;1.95;;
59424;SDS011;45231;44.826;20.312;2022-10-23T11:42:32;4.15;;;1.60;;
59424;SDS011;45231;44.826;20.312;2022-10-23T11:44:58;5.43;;;1.90;;
59424;SDS011;45231;44.826;20.312;2022-10-23T11:47:42;4.07;;;2.00;;
59424;SDS011;45231;44.826;20.312;2022-10-23T11:55:22;3.58;;;1.63;;
59424;SDS011;45231;44.826;20.312;2022-10-23T12:00:30;3.45;;;1.50;;
59424;SDS011;45231;44.826;20.312;2022-10-23T12:02:57;3.33;;;1.60;;
59424;SDS011;45231;44.826;20.312;2022-10-23T12:05:26;3.45;;;1.80;;
59424;SDS011;45231;44.826;20.312;2022-10-23T12:07:54;3.72;;;1.58;;
59424;SDS011;45231;44.826;20.312;2022-10-23T12:13:02;3.83;;;1.58;;
59424;SDS011;45231;44.826;20.312;2022-10-23T12:15:28;2.70;;;1.20;;
59424;SDS011;45231;44.826;20.312;2022-10-23T12:18:14;4.15;;;1.70;;
59424;SDS011;45231;44.826;20.312;2022-10-23T12:20:53;3.95;;;1.58;;
59424;SDS011;45231;44.826;20.312;2022-10-23T12:23:26;3.40;;;1.60;;
59424;SDS011;45231;44.826;20.312;2022-10-23T12:28:41;4.15;;;1.70;;
59424;SDS011;45231;44.826;20.312;2022-10-23T12:33:52;4.25;;;1.90;;
59424;SDS011;45231;44.826;20.312;2022-10-23T12:36:38;4.07;;;1.67;;
59424;SDS011;45231;44.826;20.312;2022-10-23T12:41:52;9.55;;;4.57;;
59424;SDS011;45231;44.826;20.312;2022-10-23T12:46:47;5.55;;;1.90;;
59424;SDS011;45231;44.826;20.312;2022-10-23T12:49:16;5.75;;;1.88;;
59424;SDS011;45231;44.826;20.312;2022-10-23T12:51:42;4.82;;;1.98;;
59424;SDS011;45231;44.826;20.312;2022-10-23T12:54:13;5.90;;;1.75;;
59424;SDS011;45231;44.826;20.312;2022-10-23T12:56:39;3.97;;;1.70;;
59424;SDS011;45231;44.826;20.312;2022-10-23T12:59:12;3.13;;;1.40;;
59424;SDS011;45231;44.826;20.312;2022-10-23T13:01:39;4.63;;;2.00;;
59424;SDS011;45231;44.826;20.312;2022-10-23T13:06:47;4.38;;;1.60;;
59424;SDS011;45231;44.826;20.312;2022-10-23T13:11:49;5.60;;;2.15;;
59424;SDS011;45231;44.826;20.312;2022-10-23T13:17:04;5.20;;;2.30;;
59424;SDS011;45231;44.826;20.312;2022-10-23T13:19:30;3.72;;;1.60;;
59424;SDS011;45231;44.826;20.312;2022-10-23T13:21:57;4.43;;;1.75;;
59424;SDS011;45231;44.826;20.312;2022-10-23T13:24:25;3.53;;;1.48;;
59424;SDS011;45231;44.826;20.312;2022-10-23T13:26:51;5.32;;;1.77;;
59424;SDS011;45231;44.826;20.312;2022-10-23T13:29:19;5.18;;;1.80;;
59424;SDS011;45231;44.826;20.312;2022-10-23T13:31:46;3.92;;;1.70;;
59424;SDS011;45231;44.826;20.312;2022-10-23T13:34:22;3.97;;;1.70;;
59424;SDS011;45231;44.826;20.312;2022-10-23T13:39:35;5.85;;;1.75;;
59424;SDS011;45231;44.826;20.312;2022-10-23T13:42:09;5.78;;;1.65;;
59424;SDS011;45231;44.826;20.312;2022-10-23T13:44:35;4.38;;;1.50;;
59424;SDS011;45231;44.826;20.312;2022-10-23T13:49:27;4.97;;;1.63;;
59424;SDS011;45231;44.826;20.312;2022-10-23T13:51:54;3.45;;;1.50;;
59424;SDS011;45231;44.826;20.312;2022-10-23T13:54:22;4.07;;;1.60;;
59424;SDS011;45231;44.826;20.312;2022-10-23T13:56:48;3.75;;;1.60;;
59424;SDS011;45231;44.826;20.312;2022-10-23T13:59:15;5.30;;;1.90;;
59424;SDS011;45231;44.826;20.312;2022-10-23T14:01:41;5.85;;;2.10;;
59424;SDS011;45231;44.826;20.312;2022-10-23T14:04:08;4.35;;;1.73;;
59424;SDS011;45231;44.826;20.312;2022-10-23T14:06:35;4.18;;;1.85;;
59424;SDS011;45231;44.826;20.312;2022-10-23T14:09:03;4.22;;;1.80;;
59424;SDS011;45231;44.826;20.312;2022-10-23T14:11:29;4.13;;;1.80;;
59424;SDS011;45231;44.826;20.312;2022-10-23T14:13:56;3.60;;;1.45;;
59424;SDS011;45231;44.826;20.312;2022-10-23T14:16:23;6.15;;;2.80;;
59424;SDS011;45231;44.826;20.312;2022-10-23T14:18:49;7.15;;;2.80;;
59424;SDS011;45231;44.826;20.312;2022-10-23T14:21:16;6.90;;;2.60;;
59424;SDS011;45231;44.826;20.312;2022-10-23T14:23:43;9.43;;;3.55;;
59424;SDS011;45231;44.826;20.312;2022-10-23T14:26:10;7.10;;;3.03;;
59424;SDS011;45231;44.826;20.312;2022-10-23T14:28:37;6.05;;;2.45;;
59424;SDS011;45231;44.826;20.312;2022-10-23T14:33:29;8.07;;;2.53;;
59424;SDS011;45231;44.826;20.312;2022-10-23T14:35:55;5.50;;;2.00;;
59424;SDS011;45231;44.826;20.312;2022-10-23T14:38:21;6.07;;;2.13;;
59424;SDS011;45231;44.826;20.312;2022-10-23T14:40:47;3.95;;;1.88;;
59424;SDS011;45231;44.826;20.312;2022-10-23T14:43:13;7.45;;;2.72;;
59424;SDS011;45231;44.826;20.312;2022-10-23T14:45:39;6.63;;;2.58;;
59424;SDS011;45231;44.826;20.312;2022-10-23T14:48:05;4.30;;;2.00;;
59424;SDS011;45231;44.826;20.312;2022-10-23T14:50:35;7.25;;;3.28;;
59424;SDS011;45231;44.826;20.312;2022-10-23T14:53:02;5.43;;;2.53;;
59424;SDS011;45231;44.826;20.312;2022-10-23T14:55:28;6.65;;;2.80;;
59424;SDS011;45231;44.826;20.312;2022-10-23T14:57:55;5.90;;;2.92;;
59424;SDS011;45231;44.826;20.312;2022-10-23T15:02:47;7.45;;;3.92;;
59424;SDS011;45231;44.826;20.312;2022-10-23T15:05:13;10.85;;;4.63;;
59424;SDS011;45231;44.826;20.312;2022-10-23T15:07:39;9.65;;;4.30;;
59424;SDS011;45231;44.826;20.312;2022-10-23T15:10:05;7.72;;;3.10;;
59424;SDS011;45231;44.826;20.312;2022-10-23T15:12:33;5.85;;;2.90;;
59424;SDS011;45231;44.826;20.312;2022-10-23T15:14:59;5.00;;;2.78;;
59424;SDS011;45231;44.826;20.312;2022-10-23T15:17:25;8.02;;;3.20;;
59424;SDS011;45231;44.826;20.312;2022-10-23T15:19:51;8.35;;;2.90;;
59424;SDS011;45231;44.826;20.312;2022-10-23T15:22:17;6.75;;;2.88;;
59424;SDS011;45231;44.826;20.312;2022-10-23T15:24:44;7.97;;;3.17;;
59424;SDS011;45231;44.826;20.312;2022-10-23T15:27:11;7.07;;;3.35;;
59424;SDS011;45231;44.826;20.312;2022-10-23T15:29:37;6.97;;;4.05;;
59424;SDS011;45231;44.826;20.312;2022-10-23T15:32:04;5.30;;;2.70;;
59424;SDS011;45231;44.826;20.312;2022-10-23T15:34:31;6.45;;;3.20;;
59424;SDS011;45231;44.826;20.312;2022-10-23T15:36:57;5.72;;;2.90;;
59424;SDS011;45231;44.826;20.312;2022-10-23T15:39:25;5.55;;;3.22;;
59424;SDS011;45231;44.826;20.312;2022-10-23T15:41:55;7.88;;;3.33;;
59424;SDS011;45231;44.826;20.312;2022-10-23T15:44:22;6.60;;;3.55;;
59424;SDS011;45231;44.826;20.312;2022-10-23T15:46:49;10.27;;;4.43;;
59424;SDS011;45231;44.826;20.312;2022-10-23T15:51:41;8.77;;;4.65;;
59424;SDS011;45231;44.826;20.312;2022-10-23T15:54:09;10.30;;;5.20;;
59424;SDS011;45231;44.826;20.312;2022-10-23T15:56:35;9.45;;;4.88;;
59424;SDS011;45231;44.826;20.312;2022-10-23T15:59:01;8.30;;;4.43;;
59424;SDS011;45231;44.826;20.312;2022-10-23T16:01:27;9.88;;;5.50;;
59424;SDS011;45231;44.826;20.312;2022-10-23T16:03:54;7.32;;;4.38;;
59424;SDS011;45231;44.826;20.312;2022-10-23T16:06:21;7.85;;;4.15;;
59424;SDS011;45231;44.826;20.312;2022-10-23T16:08:47;8.57;;;4.30;;
59424;SDS011;45231;44.826;20.312;2022-10-23T16:11:15;10.23;;;4.05;;
59424;SDS011;45231;44.826;20.312;2022-10-23T16:13:41;9.43;;;4.55;;
59424;SDS011;45231;44.826;20.312;2022-10-23T16:16:07;12.70;;;5.82;;
59424;SDS011;45231;44.826;20.312;2022-10-23T16:18:33;16.23;;;9.98;;
59424;SDS011;45231;44.826;20.312;2022-10-23T16:20:59;31.23;;;18.35;;
59424;SDS011;45231;44.826;20.312;2022-10-23T16:23:25;51.97;;;33.15;;
59424;SDS011;45231;44.826;20.312;2022-10-23T16:25:52;13.02;;;8.32;;
59424;SDS011;45231;44.826;20.312;2022-10-23T16:28:18;10.93;;;6.30;;
59424;SDS011;45231;44.826;20.312;2022-10-23T16:30:45;11.63;;;6.38;;
59424;SDS011;45231;44.826;20.312;2022-10-23T16:33:11;11.95;;;6.50;;
59424;SDS011;45231;44.826;20.312;2022-10-23T16:35:37;10.73;;;6.30;;
59424;SDS011;45231;44.826;20.312;2022-10-23T16:38:03;11.77;;;6.50;;
59424;SDS011;45231;44.826;20.312;2022-10-23T16:40:30;8.40;;;4.70;;
59424;SDS011;45231;44.826;20.312;2022-10-23T16:42:56;9.48;;;4.90;;
59424;SDS011;45231;44.826;20.312;2022-10-23T16:45:22;7.60;;;4.53;;
59424;SDS011;45231;44.826;20.312;2022-10-23T16:47:49;9.52;;;5.30;;
59424;SDS011;45231;44.826;20.312;2022-10-23T16:50:16;12.52;;;4.85;;
59424;SDS011;45231;44.826;20.312;2022-10-23T16:52:42;9.27;;;5.18;;
59424;SDS011;45231;44.826;20.312;2022-10-23T16:55:08;12.52;;;5.55;;
59424;SDS011;45231;44.826;20.312;2022-10-23T16:57:34;11.43;;;5.70;;
59424;SDS011;45231;44.826;20.312;2022-10-23T17:02:26;11.98;;;6.25;;
59424;SDS011;45231;44.826;20.312;2022-10-23T17:04:52;12.18;;;6.40;;
59424;SDS011;45231;44.826;20.312;2022-10-23T17:07:19;11.20;;;6.35;;
59424;SDS011;45231;44.826;20.312;2022-10-23T17:09:45;12.80;;;6.43;;
59424;SDS011;45231;44.826;20.312;2022-10-23T17:12:12;12.43;;;7.40;;
59424;SDS011;45231;44.826;20.312;2022-10-23T17:14:38;12.50;;;7.38;;